• Join FlightAware (Why Join?)
  • Login
  • US Flag 
05:17PM EDT


 

Airport Tracker/Info


-or-


 

Live Flight TrackerFlight Track Log ✈ AWI3780 ✈ 02-May-2013 ✈ KBTV - KPHL

Flight Track Log - Related Links

Times and Time Zones

All times are in EDT time to prevent confusion due to time zone crossing. See the AWI3780 flight status page for this flight to view local times or setup timezone preferences in your user account.

Time Position Orientation Groundspeed Altitude Reporting Facility
EDT Latitude Longitude Course Direction KTS MPH feet Rate Location/Type
03:25PM 44.4611 -73.1586 259° West 11 13 25,000  Level Boston Center
03:27PM 44.3080 -73.2102 196° South  Level FlightAware Approximate
03:34PM 43.6669 -73.4527 195° South  Level FlightAware Approximate
03:35PM 43.5750 -73.4861 194° South  Level FlightAware Approximate
03:36PM 43.4827 -73.5169 194° South  Level FlightAware Approximate
03:37PM 43.3903 -73.5477 194° South  Level FlightAware Approximate
03:38PM 43.2990 -73.5838 196° South  Level FlightAware Approximate
03:39PM 43.2078 -73.6200 195° South  Level FlightAware Approximate
03:40PM 43.1160 -73.6539 195° South  Level FlightAware Approximate
03:41PM 43.0243 -73.6877 195° South  Level FlightAware Approximate
03:42PM 42.9325 -73.7214 195° South  Level FlightAware Approximate
03:43PM 42.8412 -73.7569 196° South  Level FlightAware Approximate
03:44PM 42.7500 -73.7934 196° South  Level FlightAware Approximate
03:45PM 42.6932 -73.8904 239° Southwest  Level FlightAware Approximate
03:46PM 42.6421 -73.9993 236° Southwest  Level FlightAware Approximate
03:47PM 42.5886 -74.1061 236° Southwest  Level FlightAware Approximate
03:48PM 42.5372 -74.2145 237° Southwest  Level FlightAware Approximate
03:49PM 42.4858 -74.3229 237° Southwest  Level FlightAware Approximate
03:50PM 42.4344 -74.4312 237° Southwest  Level FlightAware Approximate
03:51PM 42.3802 -74.5369 235° Southwest  Level FlightAware Approximate
03:52PM 42.3260 -74.6424 235° Southwest  Level FlightAware Approximate
03:53PM 42.2716 -74.7478 235° Southwest  Level FlightAware Approximate
03:54PM 42.2171 -74.8529 235° Southwest  Level FlightAware Approximate
03:55PM 42.1605 -74.9548 210° Southwest  Level FlightAware Approximate
03:56PM 42.0780 -75.0184 210° Southwest  Level FlightAware Approximate
03:57PM 41.9955 -75.0818 210° Southwest  Level FlightAware Approximate
03:58PM 41.9215 -75.1594 228° Southwest  Level FlightAware Approximate
03:59PM 41.8522 -75.2174 210° Southwest  Level FlightAware Approximate
04:00PM 41.7814 -75.2730 210° Southwest  Level FlightAware Approximate
04:01PM 41.7107 -75.3284 210° Southwest  Level FlightAware Approximate
04:02PM 41.6398 -75.3837 210° Southwest  Level FlightAware Approximate
04:03PM 41.5690 -75.4389 210° Southwest  Level FlightAware Approximate
04:04PM 41.4969 -75.4910 207° Southwest  Level FlightAware Approximate
04:05PM 41.4298 -75.5535 217° Southwest  Level FlightAware Approximate
04:06PM 41.3581 -75.6058 207° Southwest  Level FlightAware Approximate
04:07PM 41.2881 -75.6619 217° Southwest  Level FlightAware Approximate
04:08PM 41.2115 -75.6833 180° South  Level FlightAware Approximate
04:09PM 41.1295 -75.6833 180° South  Level FlightAware Approximate
04:10PM 41.0475 -75.6833 180° South  Level FlightAware Approximate
04:11PM 40.9655 -75.6833 180° South  Level FlightAware Approximate
04:12PM 40.8835 -75.6833 180° South  Level FlightAware Approximate
04:13PM 40.8016 -75.6833 180° South  Level FlightAware Approximate
04:14PM 40.7196 -75.6833 180° South  Level FlightAware Approximate
04:15PM 40.6376 -75.6833 180° South  Level FlightAware Approximate
04:16PM 40.5611 -75.6707 120° Southeast  Level FlightAware Approximate
04:17PM 40.5203 -75.5771 120° Southeast  Level FlightAware Approximate
04:18PM 40.4617 -75.4434 120° Southeast  Level FlightAware Approximate
04:19PM 40.3620 -75.3806 155° Southeast  Level FlightAware Approximate
04:19PM 44.4436 -73.2892 192° South 233 268 4,100  Level Boston Center
04:20PM 40.2546 -75.3189 159° South  Level FlightAware Approximate
04:20PM 44.3622 -73.3142 192° South 263 303 6,500  Level Boston Center
04:21PM 40.1467 -75.2589 153° Southeast  Level FlightAware Approximate
04:21PM 44.2850 -73.3392 193° South 281 323 8,600  Level Boston Center
04:22PM 40.0401 -75.1951 159° South  Level FlightAware Approximate
04:22PM 44.2056 -73.3639 193° South 286 329 10,800  Level Boston Center
04:23PM 39.9767 -75.1163 75° East  Level FlightAware Approximate
04:23PM 44.1178 -73.3914 193° South 308 354 12,500  Level Boston Center
04:24PM 40.0037 -74.9685 72° East  Level FlightAware Approximate
04:24PM 44.0114 -73.4217 192° South 345 397 14,600  Level Boston Center
04:25PM 43.9131 -73.4544 194° South 361 415 16,400 1,740 Climbing Boston Center
04:26PM 43.8086 -73.4872 193° South 374 430 18,100 1,380 Climbing Boston Center
04:27PM 43.7061 -73.5172 192° South 374 430 19,200 1,200 Climbing Boston Center
04:28PM 43.5975 -73.5467 191° South 384 442 20,600 1,200 Climbing Boston Center
04:29PM 43.4908 -73.5792 192° South 395 455 21,700 1,140 Climbing Boston Center
04:30PM 43.3803 -73.6114 192° South 400 460 22,900 1,020 Climbing Boston Center
04:31PM 43.2672 -73.6461 193° South 405 466 23,800 480 Climbing Boston Center
04:32PM 43.1544 -73.6781 192° South 416 479 24,000 60 Climbing Boston Center
04:33PM 43.0206 -73.7236 194° South 416 479 24,000  Level Boston Center
04:34PM 42.9097 -73.7553 192° South 411 473 24,000  Level Boston Center
04:35PM 42.8008 -73.7900 193° South 406 467 24,000  Level Boston Center
04:36PM 42.7167 -73.8644 213° Southwest 374 430 24,000  Level Boston Center
04:37PM 42.6589 -73.9844 237° Southwest 369 425 24,000  Level Boston Center
04:39PM 42.5986 -74.1069 236° Southwest 382 440 24,000  Level Boston Center
04:40PM 42.5319 -74.2517 238° Southwest 387 445 24,000 -180 Level Boston Center
04:42PM 42.4302 -74.4394 235° Southwest  Level FlightAware Approximate
04:45PM 42.3028 -74.8122 228° Southwest 359 413 23,200  Level Boston Center
04:46PM 42.1494 -74.9556 188° South 359 413 21,100 -1,140 Descending New York Center
04:47PM 42.1327 -74.8433 188° South  Level Estimated
04:47PM 42.0761 -75.0289 217° Southwest 359 413 20,000  Level New York Center
04:48PM 41.9961 -75.1047 215° Southwest 359 413 19,000 -360 Descending New York Center
04:49PM 42.0079 -75.0723 210° Southwest  Level FlightAware Approximate
04:50PM 41.9331 -75.1420 228° Southwest  Level FlightAware Approximate
04:50PM 41.8244 -75.2494 212° Southwest 354 407 19,000  Level New York Center
04:51PM 41.7361 -75.3214 211° Southwest 354 407 19,000 -780 Level New York Center
04:52PM 41.6589 -75.3797 209° Southwest 354 407 17,500 -1,980 Descending New York Center
04:53PM 41.5686 -75.4542 212° Southwest 354 407 15,100 -2,280 Descending New York Center
04:54PM 41.4950 -74.9583 188° South  Level Estimated
04:54PM 41.4892 -75.5178 211° Southwest 354 407 13,000  Level New York Center
04:55PM 41.4094 -75.5811 211° Southwest 348 400 12,000 -540 Descending New York Center
04:56PM 41.3383 -75.6369 211° Southwest 336 387 12,000  Level New York Center
04:57PM 41.2572 -75.6864 205° Southwest 336 387 12,000  Level New York Center
04:58PM 41.1717 -75.6883 181° South 313 360 12,000  Level New York Center
04:59PM 41.0761 -75.6869 179° South 313 360 12,000  Level New York Center
05:00PM 40.9883 -75.6889 181° South 313 360 12,000  Level New York Center
05:01PM 40.9072 -75.6856 178° South 318 366 12,000  Level New York Center
05:02PM 40.8197 -75.6875 181° South 318 366 12,000  Level New York Center
05:03PM 40.7239 -75.6861 179° South 318 366 12,000  Level New York Center
05:04PM 40.6364 -75.6853 180° South 318 366 12,000  Level New York Center
05:05PM 40.5669 -75.6503 159° South 292 336 12,000 -300 Level New York Center
05:06PM 40.5186 -75.5622 126° Southeast 287 330 11,500 -960 Descending New York Center
05:07PM 40.4703 -75.4689 124° Southeast 287 330 10,200 -1,200 Descending New York Center
05:08PM 40.4025 -75.4397 162° South 255 293 9,200 -1,320 Descending New York Center
05:09PM 40.3308 -75.4622 193° South 284 327 7,700 -1,140 Descending New York Center
05:10PM 40.2569 -75.4869 194° South 279 321 7,000 -480 Descending New York Center
05:11PM 40.1767 -75.5114 193° South 284 327 6,800 -900 Descending New York Center
05:12PM 40.1250 -75.4508 138° Southeast 231 266 5,300 -1,440 Descending New York Center
05:13PM 40.0686 -75.4011 146° Southeast 231 266 4,000 -660 Descending New York Center
05:14PM 40.0108 -75.3808 165° South 243 280 4,000  Level New York Center
05:15PM 39.9575 -75.3611 164° South 227 261 4,000  Level New York Center
05:16PM 39.9333 -75.3500 161° South 198 228 4,000  Level Philadelphia TRACON
05:17PM 39.8833 -75.3333 166° South 202 232 4,000  Level Philadelphia TRACON
05:18PM 39.8333 -75.3000 153° Southeast 199 229 4,000  Level Philadelphia TRACON
05:19PM 39.7833 -75.2833 166° South 198 228 4,000  Level Philadelphia TRACON
05:20PM 39.7167 -75.2667 169° South 193 222 4,000  Level Philadelphia TRACON
05:21PM 39.6833 -75.2500 159° South 181 208 4,000 -120 Level Philadelphia TRACON
05:22PM 39.6333 -75.2167 153° Southeast 184 212 3,800 -660 Descending Philadelphia TRACON
05:23PM 39.6667 -75.1833 38° Northeast 175 201 2,600 -1,020 Descending Philadelphia TRACON